Petersville, Texas
Current Conditions -  °F | °C
As of 10:32 AM on Thursday 29 Jan 2015 (Local Time) from KVCT Reporting Station
Few Clouds Few Clouds  
Wind Chill: 67°   Ceiling: Unl
Heat Index: 67°   Visibility: 10mi
Dew Point: 63°   Wind: 3mph
Humidity: 87%   Direction: NA
Pressure: 30.26"   Gusts: NA
Location:  29.2421°N, 97.0692°W
Report Text: KVCT 291632Z VRB03KT 10SM FEW002 19/17 A3026 RMK AO2 T01940172
Loading
Personal Weather Stations






























Interactive Weather Map New forecast layout! Learn more

10-Day Weather Forecast

Advertisements
Track Severe Weather on mobile